Time;durP1;ratioP1;P1;durP2;ratioP2;P2;SDS_P1;SDS_P2;PMS_P1;PMS_P2;Temp;Humidity;BMP_temperature;BMP_pressure;BME280_temperature;BME280_humidity;BME280_pressure;Samples;Min_cycle;Max_cycle;Signal;HPM_P1;HPM_P2
2022/01/25 00:15:09;;;;;;;59.10;24.77;;;3.50;99.90;;;;;;5098087;28;20048;-81
2022/01/25 00:26:19;;;;;;;51.03;22.20;;;3.40;99.90;;;;;;5120954;28;20044;-81
2022/01/25 00:28:49;;;;;;;60.53;26.80;;;3.40;99.90;;;;;;5104687;28;20062;-81
2022/01/25 00:31:18;;;;;;;60.83;25.58;;;3.40;99.90;;;;;;5099594;28;20111;-82
2022/01/25 00:33:46;;;;;;;56.60;25.70;;;3.40;99.90;;;;;;5099695;28;20040;-81
2022/01/25 00:36:15;;;;;;;66.00;27.98;;;3.50;99.90;;;;;;5100597;28;20043;-81
2022/01/25 00:38:42;;;;;;;60.85;25.25;;;3.50;99.90;;;;;;5099785;28;20056;-81
2022/01/25 00:41:08;;;;;;;56.60;24.70;;;3.40;99.90;;;;;;5097966;28;20111;-82
2022/01/25 00:43:34;;;;;;;52.95;25.15;;;3.60;99.90;;;;;;5098392;28;20079;-81
2022/01/25 00:46:05;;;;;;;58.80;25.73;;;3.40;99.90;;;;;;5097918;28;20056;-83
2022/01/25 00:56:19;;;;;;;55.05;24.17;;;3.40;99.90;;;;;;5099219;28;20059;-83
2022/01/25 00:58:44;;;;;;;50.70;24.10;;;3.30;99.90;;;;;;5097660;28;20044;-82
2022/01/25 01:01:10;;;;;;;54.67;24.52;;;3.30;99.90;;;;;;5098646;28;20036;-82
2022/01/25 01:03:36;;;;;;;57.97;25.83;;;3.30;99.90;;;;;;5117790;28;20052;-81
2022/01/25 01:06:04;;;;;;;56.90;25.92;;;3.30;99.90;;;;;;5120646;28;20142;-80
2022/01/25 01:08:29;;;;;;;58.97;25.98;;;3.30;99.90;;;;;;5119858;28;20475;-82
2022/01/25 01:10:57;;;;;;;57.15;24.13;;;3.60;99.90;;;;;;5119653;28;20047;-80
2022/01/25 01:30:00;;;;;;;53.40;22.63;;;3.30;99.90;;;;;;5119523;28;20048;-79
2022/01/25 01:40:34;;;;;;;55.95;24.75;;;3.80;99.90;;;;;;5119937;27;20067;-80
2022/01/25 01:43:05;;;;;;;56.83;25.08;;;3.50;99.90;;;;;;5117953;28;20069;-80
2022/01/25 01:48:24;;;;;;;56.65;24.25;;;3.40;99.90;;;;;;5119912;28;20050;-80
2022/01/25 01:50:50;;;;;;;53.60;23.58;;;3.30;99.90;;;;;;5117418;28;20043;-82
2022/01/25 01:53:16;;;;;;;56.20;23.13;;;3.30;99.90;;;;;;5118284;28;20217;-81
2022/01/25 01:55:42;;;;;;;56.67;22.88;;;3.30;99.90;;;;;;5117803;28;20083;-81
2022/01/25 01:58:08;;;;;;;54.88;23.20;;;3.30;99.90;;;;;;5117324;28;20050;-81
2022/01/25 02:00:39;;;;;;;60.70;24.25;;;3.20;99.90;;;;;;5100600;28;20100;-80
2022/01/25 02:03:06;;;;;;;55.03;26.02;;;3.20;99.90;;;;;;5101358;28;20040;-82
2022/01/25 02:05:32;;;;;;;58.53;25.02;;;3.30;99.90;;;;;;5098082;28;20048;-82
2022/01/25 02:07:58;;;;;;;62.45;26.48;;;3.20;99.90;;;;;;5096991;28;20056;-81
2022/01/25 02:10:24;;;;;;;64.20;26.35;;;3.70;99.90;;;;;;5099351;28;20119;-83
2022/01/25 02:12:51;;;;;;;56.85;25.45;;;3.40;99.90;;;;;;5097371;28;20091;-82
2022/01/25 02:15:19;;;;;;;56.20;25.02;;;3.30;99.90;;;;;;5098608;28;20044;-82
2022/01/25 02:23:21;;;;;;;62.92;26.05;;;3.20;99.90;;;;;;5099031;28;20047;-79
2022/01/25 02:25:55;;;;;;;58.60;24.63;;;3.20;99.90;;;;;;5098706;28;20048;-79
2022/01/25 02:28:23;;;;;;;56.75;26.33;;;3.40;99.90;;;;;;5097997;28;20043;-80
2022/01/25 02:30:50;;;;;;;60.20;24.08;;;3.30;99.90;;;;;;5099868;28;20525;-79
2022/01/25 02:33:15;;;;;;;55.20;23.45;;;3.30;99.90;;;;;;5100635;28;20052;-80
2022/01/25 02:35:42;;;;;;;59.05;25.88;;;3.30;99.90;;;;;;5101410;28;20059;-79
2022/01/25 02:38:08;;;;;;;64.45;25.73;;;3.30;99.90;;;;;;5101154;28;20067;-80
2022/01/25 02:40:35;;;;;;;61.00;25.77;;;3.30;99.90;;;;;;5101191;28;20048;-80
2022/01/25 02:43:01;;;;;;;59.08;24.65;;;3.30;99.90;;;;;;5102382;28;20048;-80
2022/01/25 02:45:33;;;;;;;64.30;25.75;;;3.30;99.90;;;;;;5100362;28;20151;-79
2022/01/25 02:50:43;;;;;;;56.65;24.92;;;3.30;99.90;;;;;;5101487;28;20048;-81
2022/01/25 02:53:09;;;;;;;58.05;23.75;;;3.30;99.90;;;;;;5102606;28;20108;-80
2022/01/25 02:55:35;;;;;;;59.63;24.98;;;3.30;99.90;;;;;;5100534;28;20040;-81
2022/01/25 02:58:01;;;;;;;61.88;25.58;;;3.30;99.90;;;;;;5100284;28;20044;-81
2022/01/25 03:00:26;;;;;;;61.20;24.92;;;3.30;99.90;;;;;;5100939;28;20048;-80
2022/01/25 03:02:52;;;;;;;59.38;24.38;;;3.50;99.90;;;;;;5114046;28;20063;-80
2022/01/25 03:05:18;;;;;;;62.92;27.73;;;3.30;99.90;;;;;;5121642;28;20208;-80
2022/01/25 03:07:44;;;;;;;57.55;24.92;;;3.50;99.90;;;;;;5103411;28;20853;-80
2022/01/25 03:10:12;;;;;;;58.05;23.95;;;3.30;99.90;;;;;;5121380;28;20044;-79
2022/01/25 03:12:52;;;;;;;56.47;24.67;;;3.30;99.90;;;;;;5120770;28;20048;-79
2022/01/25 03:17:49;;;;;;;62.83;24.75;;;3.30;99.90;;;;;;5120541;28;20059;-83
2022/01/25 03:20:34;;;;;;;58.70;23.88;;;3.50;99.90;;;;;;5121583;27;20040;-81
2022/01/25 03:23:05;;;;;;;57.47;24.35;;;3.30;99.90;;;;;;5120900;28;20050;-80
2022/01/25 03:25:32;;;;;;;59.38;26.08;;;3.20;99.90;;;;;;5120350;28;20107;-80
2022/01/25 03:27:58;;;;;;;64.32;25.38;;;3.20;99.90;;;;;;5120286;28;20075;-80
2022/01/25 03:30:25;;;;;;;66.60;27.40;;;3.20;99.90;;;;;;5120014;28;20138;-79
2022/01/25 03:32:52;;;;;;;56.30;25.98;;;3.20;99.90;;;;;;5111939;28;20073;-79
2022/01/25 03:35:18;;;;;;;63.00;26.33;;;3.30;99.90;;;;;;5121094;28;20040;-80
2022/01/25 03:37:44;;;;;;;59.63;26.45;;;3.30;99.90;;;;;;5119578;28;20113;-80
2022/01/25 03:40:10;;;;;;;60.50;25.02;;;3.40;99.90;;;;;;5120804;28;20058;-82
2022/01/25 03:42:38;;;;;;;61.03;26.38;;;3.30;99.90;;;;;;5121258;28;20153;-82
2022/01/25 03:45:06;;;;;;;62.75;24.85;;;3.30;99.90;;;;;;5120083;28;20089;-79
2022/01/25 03:47:45;;;;;;;58.80;25.70;;;3.30;99.90;;;;;;5120633;28;20052;-79
2022/01/25 03:50:11;;;;;;;55.00;23.92;;;3.30;99.90;;;;;;5119528;28;20642;-79
2022/01/25 03:52:37;;;;;;;60.90;25.15;;;3.40;99.90;;;;;;5121042;28;20035;-79
2022/01/25 03:55:05;;;;;;;58.88;23.77;;;3.40;99.90;;;;;;5120582;28;20077;-78
2022/01/25 03:57:31;;;;;;;55.92;23.95;;;3.40;99.90;;;;;;5120401;28;20056;-78
2022/01/25 03:59:59;;;;;;;62.42;26.08;;;3.40;99.90;;;;;;5121366;28;20051;-78
2022/01/25 04:02:28;;;;;;;55.40;24.50;;;3.50;99.90;;;;;;5110565;28;20051;-79
2022/01/25 04:04:54;;;;;;;62.90;24.92;;;3.40;99.90;;;;;;5099873;28;20048;-79
2022/01/25 04:07:41;;;;;;;58.53;24.38;;;3.50;99.90;;;;;;5100104;28;20103;-80
2022/01/25 04:10:06;;;;;;;57.65;23.88;;;3.40;99.90;;;;;;5101303;28;20048;-79
2022/01/25 04:12:31;;;;;;;54.92;23.58;;;3.40;99.90;;;;;;5100276;28;20151;-79
2022/01/25 04:14:58;;;;;;;59.88;24.35;;;3.40;99.90;;;;;;5100726;28;20093;-80
2022/01/25 04:17:24;;;;;;;55.45;23.42;;;3.30;99.90;;;;;;5099380;28;20330;-79
2022/01/25 04:20:11;;;;;;;60.72;25.98;;;3.40;99.90;;;;;;5099841;28;20164;-79
2022/01/25 04:25:20;;;;;;;58.83;24.40;;;3.30;99.90;;;;;;5100220;28;20562;-80
2022/01/25 04:27:46;;;;;;;57.70;24.63;;;3.30;99.90;;;;;;5082445;28;20048;-80
2022/01/25 04:30:12;;;;;;;54.10;23.98;;;3.30;99.90;;;;;;5100380;28;20387;-80
2022/01/25 04:32:48;;;;;;;61.55;24.83;;;3.50;99.90;;;;;;5098954;28;20126;-80
2022/01/25 04:53:37;;;;;;;59.33;24.70;;;3.40;99.90;;;;;;5032539;28;20053;-80
2022/01/25 04:56:12;;;;;;;61.03;25.08;;;3.20;99.90;;;;;;5034337;28;20061;-80
2022/01/25 04:58:47;;;;;;;60.70;25.25;;;3.20;99.90;;;;;;5034303;28;20147;-80
2022/01/25 05:01:13;;;;;;;60.85;26.75;;;3.50;99.90;;;;;;5034128;28;20042;-80
2022/01/25 05:03:55;;;;;;;60.25;26.08;;;3.20;99.90;;;;;;5034332;28;20049;-80
2022/01/25 05:06:22;;;;;;;63.97;25.33;;;3.20;99.90;;;;;;5034119;28;20049;-80
2022/01/25 05:08:52;;;;;;;57.47;26.02;;;3.20;99.90;;;;;;5033628;28;20458;-80
2022/01/25 05:13:50;;;;;;;65.97;25.92;;;3.50;99.90;;;;;;5034021;28;20504;-80
2022/01/25 05:16:32;;;;;;;60.78;25.63;;;3.10;99.90;;;;;;5033981;28;20048;-80
2022/01/25 05:24:35;;;;;;;62.53;25.65;;;3.10;99.90;;;;;;5033836;28;20065;-79
2022/01/25 05:27:01;;;;;;;66.32;26.73;;;3.10;99.90;;;;;;5016411;28;20466;-79
2022/01/25 05:29:27;;;;;;;64.65;25.40;;;3.10;99.90;;;;;;5032815;28;20476;-80
2022/01/25 05:31:52;;;;;;;57.80;23.52;;;3.30;99.90;;;;;;5033678;28;20088;-80
2022/01/25 05:34:18;;;;;;;62.28;25.77;;;3.70;99.90;;;;;;5033441;28;20146;-80
2022/01/25 05:36:44;;;;;;;63.78;25.92;;;3.10;99.90;;;;;;5032408;28;20045;-80
2022/01/25 05:39:24;;;;;;;61.95;25.88;;;3.10;99.90;;;;;;5033478;28;20050;-80
2022/01/25 05:42:00;;;;;;;62.25;25.08;;;3.10;99.90;;;;;;5033322;28;20053;-80
2022/01/25 05:44:38;;;;;;;65.32;26.73;;;3.10;99.90;;;;;;5033640;28;20060;-80
2022/01/25 05:47:07;;;;;;;68.45;25.60;;;3.10;99.90;;;;;;5033929;28;20046;-80
2022/01/25 05:49:37;;;;;;;67.80;25.83;;;3.10;99.90;;;;;;5033233;28;20045;-80
2022/01/25 05:52:05;;;;;;;58.42;24.80;;;3.10;99.90;;;;;;5033501;28;20135;-80
2022/01/25 05:54:31;;;;;;;57.33;23.67;;;3.10;99.90;;;;;;5033275;28;20046;-80
2022/01/25 05:56:56;;;;;;;57.92;25.63;;;3.20;99.90;;;;;;5033409;28;20068;-80
2022/01/25 05:59:22;;;;;;;62.20;25.00;;;3.20;99.90;;;;;;5034107;28;20041;-80
2022/01/25 06:01:49;;;;;;;63.33;26.77;;;3.20;99.90;;;;;;5033328;28;20052;-80
2022/01/25 06:04:14;;;;;;;59.83;24.88;;;3.20;99.90;;;;;;5033932;28;20054;-79
2022/01/25 06:06:41;;;;;;;61.47;25.13;;;3.30;99.90;;;;;;5037445;28;20551;-80
2022/01/25 06:09:06;;;;;;;61.65;25.38;;;3.40;99.90;;;;;;5036016;28;20515;-80
2022/01/25 06:11:33;;;;;;;65.60;25.65;;;3.20;99.90;;;;;;5037071;28;20046;-80
2022/01/25 06:14:00;;;;;;;59.30;25.50;;;3.10;99.90;;;;;;5037323;28;20081;-80
2022/01/25 06:16:28;;;;;;;63.13;25.10;;;3.50;99.90;;;;;;5037187;28;20045;-80
2022/01/25 06:18:55;;;;;;;58.70;24.23;;;3.10;99.90;;;;;;5036881;28;20539;-80
2022/01/25 06:21:20;;;;;;;57.83;24.50;;;3.50;99.90;;;;;;5037156;28;20482;-80
2022/01/25 06:23:46;;;;;;;66.15;26.20;;;3.70;99.90;;;;;;5037955;28;20041;-80
2022/01/25 06:26:12;;;;;;;61.38;25.92;;;3.10;99.90;;;;;;5037099;28;20454;-80
2022/01/25 06:28:38;;;;;;;61.53;24.73;;;3.70;99.90;;;;;;5036329;28;20041;-80
2022/01/25 06:31:04;;;;;;;57.45;24.30;;;3.10;99.90;;;;;;5037057;28;20496;-80
2022/01/25 06:33:29;;;;;;;63.05;25.38;;;3.30;99.90;;;;;;5036919;28;20053;-81
2022/01/25 06:35:56;;;;;;;66.28;26.35;;;3.10;99.90;;;;;;5036158;28;20056;-80
2022/01/25 06:38:22;;;;;;;58.88;25.40;;;3.10;99.90;;;;;;5035692;28;20045;-80
2022/01/25 06:40:48;;;;;;;56.90;22.85;;;3.40;99.90;;;;;;5036810;28;20144;-80
2022/01/25 06:43:13;;;;;;;56.20;24.88;;;3.10;99.90;;;;;;5037063;28;20115;-79
2022/01/25 06:45:41;;;;;;;62.05;24.83;;;3.10;99.90;;;;;;5036760;28;20057;-80
2022/01/25 06:48:07;;;;;;;57.58;24.83;;;3.10;99.90;;;;;;5036629;28;20049;-80
2022/01/25 06:50:34;;;;;;;60.90;24.67;;;3.70;99.90;;;;;;5036446;28;20044;-78
2022/01/25 06:52:59;;;;;;;64.40;25.58;;;3.10;99.90;;;;;;5036470;28;20064;-79
2022/01/25 06:55:25;;;;;;;59.10;24.90;;;3.10;99.90;;;;;;5036584;28;20037;-80
2022/01/25 06:57:51;;;;;;;61.92;23.60;;;3.10;99.90;;;;;;5036494;28;20034;-80
2022/01/25 07:00:19;;;;;;;57.95;23.35;;;3.20;99.90;;;;;;5036548;28;20053;-80
2022/01/25 07:02:46;;;;;;;61.13;24.85;;;3.20;99.90;;;;;;5036385;28;20045;-79
2022/01/25 07:05:11;;;;;;;59.08;23.55;;;3.20;99.90;;;;;;5035412;28;20128;-80
2022/01/25 07:07:38;;;;;;;58.75;25.27;;;3.40;99.90;;;;;;5035145;28;20124;-80
2022/01/25 07:10:06;;;;;;;63.13;25.88;;;3.30;99.90;;;;;;5035912;28;20050;-80
2022/01/25 07:12:32;;;;;;;58.65;26.58;;;3.20;99.90;;;;;;5036758;28;20050;-80
2022/01/25 07:14:58;;;;;;;66.75;27.30;;;3.30;99.90;;;;;;5037086;28;20176;-78
2022/01/25 07:17:23;;;;;;;61.60;24.70;;;3.20;99.90;;;;;;5035594;28;20128;-78
2022/01/25 07:19:50;;;;;;;63.25;24.75;;;3.90;99.90;;;;;;5036371;28;20041;-78
2022/01/25 07:22:16;;;;;;;63.05;25.15;;;3.70;99.90;;;;;;5036614;28;20049;-78
2022/01/25 07:24:42;;;;;;;68.35;25.08;;;3.20;99.90;;;;;;5036817;28;20045;-79
2022/01/25 07:27:08;;;;;;;62.60;23.98;;;3.20;99.90;;;;;;5035989;28;20597;-79
2022/01/25 07:29:34;;;;;;;58.85;24.35;;;3.30;99.90;;;;;;5036693;28;20077;-71
2022/01/25 07:32:00;;;;;;;63.38;23.33;;;3.10;99.90;;;;;;5035871;28;20085;-71
2022/01/25 07:34:26;;;;;;;55.50;25.45;;;3.10;99.90;;;;;;5035868;28;20131;-72
2022/01/25 07:36:52;;;;;;;59.22;23.15;;;3.10;99.90;;;;;;5034842;28;20061;-72
2022/01/25 07:39:19;;;;;;;63.72;24.90;;;3.10;99.90;;;;;;5035573;28;20073;-72
2022/01/25 07:41:45;;;;;;;67.30;25.17;;;3.10;99.90;;;;;;5036148;28;20049;-72
2022/01/25 07:44:11;;;;;;;61.40;25.55;;;3.10;99.90;;;;;;5034535;28;20452;-72
2022/01/25 07:46:37;;;;;;;71.90;27.58;;;3.10;99.90;;;;;;5035662;28;20049;-72
2022/01/25 07:49:03;;;;;;;63.90;26.35;;;3.20;99.90;;;;;;5036346;28;20060;-72
2022/01/25 07:51:30;;;;;;;62.72;24.08;;;3.10;99.90;;;;;;5035615;28;20049;-72
2022/01/25 07:53:59;;;;;;;63.10;24.58;;;3.10;99.90;;;;;;5034766;28;20085;-72
2022/01/25 07:56:25;;;;;;;61.67;24.92;;;3.10;99.90;;;;;;5035494;28;20048;-75
2022/01/25 07:58:51;;;;;;;62.10;26.23;;;3.10;99.90;;;;;;5035267;28;20037;-72
2022/01/25 08:01:17;;;;;;;62.30;26.45;;;3.10;99.90;;;;;;5036084;28;20052;-72
2022/01/25 08:03:43;;;;;;;63.60;23.50;;;3.20;99.90;;;;;;5035090;28;20041;-72
2022/01/25 08:06:10;;;;;;;62.17;25.65;;;3.10;99.90;;;;;;5035223;28;20041;-72
2022/01/25 08:08:36;;;;;;;57.72;24.45;;;3.20;99.90;;;;;;5035069;28;20041;-72
2022/01/25 08:11:03;;;;;;;64.40;25.92;;;3.10;99.90;;;;;;5035187;28;20393;-72
2022/01/25 08:13:29;;;;;;;52.30;22.40;;;3.20;99.90;;;;;;5034116;28;20045;-72
2022/01/25 08:15:55;;;;;;;65.10;23.63;;;3.20;99.90;;;;;;5035666;28;20340;-72
2022/01/25 08:18:21;;;;;;;57.15;23.95;;;3.20;99.90;;;;;;5034271;28;20047;-72
2022/01/25 08:20:47;;;;;;;61.00;25.13;;;3.50;99.90;;;;;;5034876;28;20041;-79
2022/01/25 08:23:13;;;;;;;63.22;26.10;;;3.30;99.90;;;;;;5034069;28;20072;-79
2022/01/25 08:25:38;;;;;;;61.83;25.63;;;3.40;99.90;;;;;;5034763;28;20053;-71
2022/01/25 08:28:05;;;;;;;61.92;25.08;;;3.40;99.90;;;;;;5032860;28;20045;-77
2022/01/25 08:30:30;;;;;;;60.00;25.45;;;3.50;99.90;;;;;;5035252;28;20057;-76
2022/01/25 08:32:56;;;;;;;60.13;24.05;;;3.30;99.90;;;;;;5035207;28;20053;-77
2022/01/25 08:35:22;;;;;;;61.85;23.40;;;4.00;99.90;;;;;;5035213;28;20050;-76
2022/01/25 08:37:48;;;;;;;57.42;24.40;;;3.70;99.90;;;;;;5034593;28;20067;-80
2022/01/25 08:40:14;;;;;;;63.95;25.13;;;3.30;99.90;;;;;;5033531;28;20041;-83
2022/01/25 08:42:40;;;;;;;58.42;24.90;;;3.30;99.90;;;;;;5034426;28;20057;-83
2022/01/25 08:45:07;;;;;;;59.67;23.73;;;3.30;99.90;;;;;;5033149;28;20050;-83
2022/01/25 08:47:33;;;;;;;58.13;23.30;;;3.30;99.90;;;;;;5035065;28;20071;-82
2022/01/25 08:49:59;;;;;;;62.03;25.58;;;3.30;99.90;;;;;;5033682;28;20053;-83
2022/01/25 08:52:27;;;;;;;63.15;25.63;;;3.30;99.90;;;;;;5034901;28;20052;-83
2022/01/25 08:54:53;;;;;;;58.70;23.42;;;3.30;99.90;;;;;;5034516;28;20114;-77
2022/01/25 08:57:19;;;;;;;56.95;24.90;;;3.30;99.90;;;;;;5034372;28;20409;-81
2022/01/25 08:59:45;;;;;;;60.97;24.40;;;3.70;99.90;;;;;;5033516;28;20045;-76
2022/01/25 09:02:11;;;;;;;60.83;25.60;;;3.30;99.90;;;;;;5034122;28;20055;-76
2022/01/25 09:04:37;;;;;;;57.78;23.63;;;3.80;99.90;;;;;;5034040;28;20128;-76
2022/01/25 09:07:03;;;;;;;65.95;25.63;;;3.30;99.90;;;;;;5034099;28;20051;-77
2022/01/25 09:09:28;;;;;;;60.38;24.38;;;3.30;99.90;;;;;;5032892;28;20053;-78
2022/01/25 09:11:56;;;;;;;63.88;25.13;;;3.30;99.90;;;;;;5032710;28;20056;-76
2022/01/25 09:14:22;;;;;;;60.33;24.05;;;3.30;99.90;;;;;;5033862;28;20054;-74
2022/01/25 09:16:48;;;;;;;58.30;24.42;;;3.30;99.90;;;;;;5033495;28;20141;-81
2022/01/25 09:19:15;;;;;;;66.68;25.83;;;3.30;99.90;;;;;;5032565;28;20128;-80
2022/01/25 09:21:41;;;;;;;64.72;25.40;;;3.40;99.90;;;;;;5033028;28;20052;-79
2022/01/25 09:24:08;;;;;;;60.85;25.67;;;3.30;99.90;;;;;;5033703;28;20136;-81
2022/01/25 09:26:33;;;;;;;63.38;26.30;;;3.30;99.90;;;;;;5033708;28;20123;-72
2022/01/25 09:28:59;;;;;;;56.47;23.67;;;3.30;99.90;;;;;;5032911;28;20187;-71
2022/01/25 09:31:26;;;;;;;68.28;25.67;;;3.30;99.90;;;;;;5034154;28;20442;-69
2022/01/25 09:33:52;;;;;;;58.38;23.80;;;3.30;99.90;;;;;;5033574;28;20072;-70
2022/01/25 09:36:20;;;;;;;62.05;25.27;;;3.30;99.90;;;;;;5033564;28;20055;-71
2022/01/25 09:38:46;;;;;;;61.17;24.25;;;4.10;99.90;;;;;;5032967;28;20533;-70
2022/01/25 09:41:12;;;;;;;59.70;25.48;;;3.50;99.90;;;;;;5033164;28;20133;-78
2022/01/25 09:43:38;;;;;;;55.50;24.73;;;3.40;99.90;;;;;;5033285;28;20084;-79
2022/01/25 09:46:04;;;;;;;59.50;25.92;;;3.40;99.90;;;;;;4999648;28;20469;-80
2022/01/25 09:48:30;;;;;;;59.80;24.67;;;3.90;99.90;;;;;;5032385;28;20053;-79
2022/01/25 09:50:57;;;;;;;57.65;24.67;;;3.40;99.90;;;;;;5032428;28;20535;-77
2022/01/25 09:53:25;;;;;;;65.57;25.40;;;3.40;99.90;;;;;;5016794;28;20045;-77
2022/01/25 09:55:51;;;;;;;61.10;23.48;;;3.70;99.90;;;;;;5016464;28;20088;-75
2022/01/25 09:58:17;;;;;;;62.03;25.45;;;3.40;99.90;;;;;;5032216;28;20073;-74
2022/01/25 10:00:46;;;;;;;63.17;25.60;;;3.40;99.90;;;;;;5032121;28;20077;-75
2022/01/25 10:03:36;;;;;;;63.53;25.35;;;3.50;99.90;;;;;;5033085;28;20482;-76
2022/01/25 10:06:04;;;;;;;61.20;24.95;;;3.50;99.90;;;;;;5033814;28;20050;-76
2022/01/25 10:08:36;;;;;;;60.45;24.27;;;3.50;99.90;;;;;;5032963;28;20061;-75
2022/01/25 10:11:11;;;;;;;60.33;24.98;;;3.50;99.90;;;;;;5033195;28;20552;-76
2022/01/25 10:13:38;;;;;;;58.25;23.52;;;3.50;99.90;;;;;;5015921;28;20079;-76
2022/01/25 10:16:06;;;;;;;57.25;22.00;;;3.50;99.90;;;;;;5032185;28;20056;-78
2022/01/25 10:18:47;;;;;;;61.38;25.23;;;3.60;99.90;;;;;;5032318;28;20050;-78
2022/01/25 10:21:36;;;;;;;62.08;23.92;;;3.50;99.90;;;;;;5033359;28;20049;-74
2022/01/25 10:24:27;;;;;;;62.92;23.75;;;3.60;99.90;;;;;;5032644;28;20057;-80
2022/01/25 10:27:03;;;;;;;58.53;22.38;;;3.60;99.90;;;;;;5033684;28;20050;-82
2022/01/25 10:29:34;;;;;;;61.78;23.58;;;3.60;99.90;;;;;;5016345;28;20045;-75
2022/01/25 10:32:08;;;;;;;57.65;24.35;;;3.60;99.90;;;;;;5033405;28;20081;-79
2022/01/25 10:34:41;;;;;;;53.42;21.45;;;3.70;99.90;;;;;;5033142;28;20049;-75
2022/01/25 10:37:10;;;;;;;57.28;23.30;;;3.70;99.90;;;;;;5033028;28;20080;-75
2022/01/25 10:39:42;;;;;;;57.03;23.27;;;4.00;99.90;;;;;;5032649;28;20045;-74
2022/01/25 10:42:18;;;;;;;62.38;23.75;;;3.70;99.90;;;;;;5032042;28;20478;-74
2022/01/25 10:44:47;;;;;;;66.78;24.77;;;4.00;99.90;;;;;;5033788;28;20380;-73
2022/01/25 10:47:13;;;;;;;60.75;24.00;;;3.80;99.90;;;;;;5032857;28;20045;-72
2022/01/25 10:49:50;;;;;;;60.20;25.05;;;4.00;99.90;;;;;;5033607;28;20049;-74
2022/01/25 10:52:27;;;;;;;65.07;23.48;;;4.20;99.90;;;;;;5034166;28;20045;-73
2022/01/25 10:54:53;;;;;;;60.67;23.40;;;3.80;99.90;;;;;;5036529;28;20084;-74
2022/01/25 10:57:23;;;;;;;62.65;24.25;;;3.70;99.90;;;;;;5035646;28;20084;-76
2022/01/25 11:00:00;;;;;;;63.58;24.65;;;3.70;99.90;;;;;;5035861;28;20446;-77
2022/01/25 11:02:27;;;;;;;58.90;23.38;;;3.70;99.90;;;;;;5036145;28;20097;-80
2022/01/25 11:05:08;;;;;;;59.38;24.58;;;4.00;99.90;;;;;;5035784;28;20045;-82
2022/01/25 11:07:46;;;;;;;56.08;24.45;;;3.80;99.90;;;;;;5036363;28;20513;-79
2022/01/25 11:10:18;;;;;;;55.00;23.88;;;4.10;99.90;;;;;;5035143;28;20049;-80
2022/01/25 11:12:59;;;;;;;57.53;23.70;;;4.10;99.90;;;;;;5035371;28;20409;-79
2022/01/25 11:15:25;;;;;;;57.85;24.83;;;4.40;99.90;;;;;;5035692;28;20049;-80
2022/01/25 11:17:51;;;;;;;58.60;22.77;;;3.80;99.90;;;;;;5036184;28;20512;-82
2022/01/25 11:20:16;;;;;;;61.25;23.58;;;3.80;99.90;;;;;;5036317;28;20128;-83
2022/01/25 11:22:45;;;;;;;68.50;24.45;;;3.80;99.90;;;;;;5036163;28;20046;-82
2022/01/25 11:25:14;;;;;;;63.13;24.17;;;3.90;99.90;;;;;;5036080;28;20049;-83
2022/01/25 11:27:41;;;;;;;60.60;22.65;;;3.80;99.90;;;;;;5035090;28;20513;-81
2022/01/25 11:30:11;;;;;;;60.08;23.88;;;3.80;99.90;;;;;;5035061;28;20060;-82
2022/01/25 11:32:41;;;;;;;65.97;24.45;;;3.90;99.90;;;;;;5034970;28;20053;-81
2022/01/25 11:35:10;;;;;;;57.03;23.77;;;3.90;99.90;;;;;;5034883;28;20508;-77
2022/01/25 11:37:42;;;;;;;68.55;23.95;;;3.80;99.90;;;;;;5035850;28;20116;-78
2022/01/25 11:40:38;;;;;;;62.60;24.42;;;3.90;99.90;;;;;;5035123;28;20060;-78
2022/01/25 11:43:12;;;;;;;59.53;22.20;;;3.80;99.90;;;;;;5035867;28;20076;-78
2022/01/25 11:45:43;;;;;;;63.28;25.08;;;3.90;99.90;;;;;;5035751;28;20050;-78
2022/01/25 11:48:09;;;;;;;56.60;25.17;;;3.90;99.90;;;;;;5034578;28;20081;-78
2022/01/25 11:50:40;;;;;;;59.17;22.60;;;4.00;99.90;;;;;;5035710;28;20128;-78
2022/01/25 11:53:08;;;;;;;63.90;24.48;;;3.80;99.90;;;;;;5034906;28;20053;-78
2022/01/25 11:55:37;;;;;;;60.95;23.05;;;3.90;99.90;;;;;;5035513;28;20179;-78
2022/01/25 11:58:25;;;;;;;62.80;22.70;;;3.90;99.90;;;;;;5036221;28;20064;-78
2022/01/25 12:00:56;;;;;;;58.50;22.98;;;3.90;99.90;;;;;;5035431;28;20045;-83
2022/01/25 12:03:28;;;;;;;56.17;23.05;;;4.30;99.90;;;;;;5034173;28;20045;-75
2022/01/25 12:06:13;;;;;;;57.60;23.48;;;3.80;99.90;;;;;;5035226;28;20114;-80
2022/01/25 12:08:55;;;;;;;61.47;23.80;;;3.80;99.90;;;;;;5034054;28;20089;-80
2022/01/25 12:11:51;;;;;;;57.05;24.05;;;3.80;99.90;;;;;;5035391;28;20107;-80
2022/01/25 12:14:37;;;;;;;62.88;23.23;;;3.80;99.90;;;;;;5035883;28;20060;-79
2022/01/25 12:17:02;;;;;;;64.88;23.38;;;3.80;99.90;;;;;;5034628;28;20047;-82
2022/01/25 12:19:34;;;;;;;65.75;25.52;;;4.50;99.90;;;;;;5033827;28;20049;-79
2022/01/25 12:22:12;;;;;;;62.80;25.17;;;3.80;99.90;;;;;;5034041;28;20057;-79
2022/01/25 12:24:46;;;;;;;62.65;22.60;;;3.80;99.90;;;;;;5035268;28;20072;-74
2022/01/25 12:27:34;;;;;;;66.97;23.95;;;3.80;99.90;;;;;;5034995;28;20102;-75
2022/01/25 12:30:08;;;;;;;60.90;23.13;;;3.90;99.90;;;;;;5034981;28;20481;-75
2022/01/25 12:32:36;;;;;;;61.95;22.92;;;3.80;99.90;;;;;;5034875;28;20103;-74
2022/01/25 12:35:10;;;;;;;61.85;23.00;;;3.80;99.90;;;;;;5034847;28;20056;-74
2022/01/25 12:37:45;;;;;;;60.75;23.95;;;3.90;99.90;;;;;;5034748;28;20049;-74
2022/01/25 12:40:29;;;;;;;61.47;25.15;;;3.80;99.90;;;;;;5035166;28;20135;-74
2022/01/25 12:42:58;;;;;;;62.20;24.50;;;3.80;99.90;;;;;;5034010;28;20053;-74
2022/01/25 12:45:27;;;;;;;58.42;24.10;;;4.00;99.90;;;;;;5034545;28;20052;-75
2022/01/25 12:47:57;;;;;;;62.05;23.70;;;3.80;99.90;;;;;;5034566;28;20038;-74
2022/01/25 12:50:24;;;;;;;64.10;23.27;;;3.80;99.90;;;;;;5033396;28;20050;-81
2022/01/25 12:52:50;;;;;;;62.58;23.40;;;3.80;99.90;;;;;;5034383;28;20052;-82
2022/01/25 12:55:21;;;;;;;59.20;24.20;;;4.10;99.90;;;;;;5017298;28;20046;-79
2022/01/25 12:57:52;;;;;;;54.60;21.75;;;3.80;99.90;;;;;;5034144;28;20132;-78
2022/01/25 13:00:19;;;;;;;65.25;23.90;;;4.20;99.90;;;;;;5034371;28;20500;-80
2022/01/25 13:02:44;;;;;;;54.65;22.48;;;3.80;99.90;;;;;;5033841;28;20382;-75
2022/01/25 13:05:21;;;;;;;65.20;23.90;;;3.80;99.90;;;;;;5033014;28;20049;-74
2022/01/25 13:07:48;;;;;;;60.50;25.25;;;3.80;99.90;;;;;;5034269;28;20073;-75
2022/01/25 13:10:29;;;;;;;63.13;24.35;;;3.80;99.90;;;;;;5034150;28;20053;-74
2022/01/25 13:12:58;;;;;;;61.95;23.63;;;3.80;99.90;;;;;;5033460;28;20060;-73
2022/01/25 13:15:51;;;;;;;60.40;24.92;;;3.80;99.90;;;;;;5033531;28;20111;-75
2022/01/25 13:18:16;;;;;;;68.45;27.20;;;3.80;99.90;;;;;;5034261;28;20149;-74
2022/01/25 13:20:46;;;;;;;61.33;23.75;;;3.90;99.90;;;;;;5033840;28;20128;-73
2022/01/25 13:23:12;;;;;;;61.35;24.48;;;4.10;99.90;;;;;;5033942;28;20052;-73
2022/01/25 13:25:55;;;;;;;61.55;22.92;;;3.80;99.90;;;;;;5032958;28;20053;-73
2022/01/25 13:31:00;;;;;;;59.42;23.48;;;3.80;99.90;;;;;;5034305;28;20061;-74
2022/01/25 13:33:28;;;;;;;66.70;26.42;;;3.80;99.90;;;;;;5034494;28;20049;-73
2022/01/25 13:35:56;;;;;;;55.05;22.70;;;3.90;99.90;;;;;;5033744;28;20057;-74
2022/01/25 13:38:28;;;;;;;61.58;25.02;;;3.80;99.90;;;;;;5033717;28;20045;-74
2022/01/25 13:46:33;;;;;;;61.20;24.70;;;4.20;99.90;;;;;;5033182;28;20527;-73
2022/01/25 13:49:13;;;;;;;59.83;22.83;;;3.80;99.90;;;;;;5034180;28;20064;-74
2022/01/25 13:51:43;;;;;;;51.08;20.92;;;4.00;99.90;;;;;;5033948;28;20050;-74
2022/01/25 13:54:13;;;;;;;55.83;24.10;;;3.70;99.90;;;;;;5032959;28;20057;-74
2022/01/25 13:56:40;;;;;;;62.03;24.73;;;3.90;99.90;;;;;;5033405;28;20140;-74
2022/01/25 13:59:06;;;;;;;52.38;22.48;;;3.70;99.90;;;;;;5032134;28;20045;-73
2022/01/25 14:01:35;;;;;;;55.53;22.90;;;3.80;99.90;;;;;;5033327;28;20053;-73
2022/01/25 14:04:07;;;;;;;53.17;19.92;;;3.70;99.90;;;;;;5033368;28;20049;-72
2022/01/25 14:06:41;;;;;;;56.75;21.88;;;3.70;99.90;;;;;;5033388;28;20128;-73
2022/01/25 14:09:23;;;;;;;67.45;25.15;;;3.70;99.90;;;;;;5032066;28;20069;-76
2022/01/25 14:21:33;;;;;;;57.00;23.52;;;3.70;99.90;;;;;;5033920;28;20152;-74
2022/01/25 14:25:29;;;;;;;61.05;23.17;;;3.60;99.90;;;;;;5033308;28;20191;-78
2022/01/25 14:27:56;;;;;;;57.95;22.88;;;3.60;99.90;;;;;;5035755;28;20049;-77
2022/01/25 14:30:22;;;;;;;56.70;23.88;;;3.90;99.90;;;;;;5037945;28;20351;-78
2022/01/25 14:33:14;;;;;;;64.38;24.55;;;3.60;99.90;;;;;;5037080;28;20055;-77
2022/01/25 14:35:46;;;;;;;63.35;23.42;;;3.60;99.90;;;;;;5037359;28;20049;-75
2022/01/25 14:38:38;;;;;;;57.15;22.38;;;3.60;99.90;;;;;;5036857;28;20487;-75
2022/01/25 14:41:07;;;;;;;58.83;23.13;;;3.60;99.90;;;;;;5036826;28;20060;-77
2022/01/25 14:43:39;;;;;;;62.20;23.00;;;3.60;99.90;;;;;;5035638;28;20055;-76